Time;durP1;ratioP1;P1;durP2;ratioP2;P2;SDS_P1;SDS_P2;PMS_P1;PMS_P2;Temp;Humidity;BMP_temperature;BMP_pressure;BME280_temperature;BME280_humidity;BME280_pressure;Samples;Min_cycle;Max_cycle;Signal;HPM_P1;HPM_P2
2022/08/17 00:00:38;;;;;;;7.63;6.93;;;19.20;99.90;;;;;;5033097;28;20476;-85
2022/08/17 00:03:19;;;;;;;7.87;6.97;;;19.10;99.90;;;;;;5031706;28;20922;-85
2022/08/17 00:05:51;;;;;;;7.93;6.20;;;19.10;99.90;;;;;;5032584;28;20414;-85
2022/08/17 00:08:21;;;;;;;6.30;5.07;;;19.10;99.90;;;;;;5014686;28;21010;-85
2022/08/17 00:10:48;;;;;;;6.90;6.20;;;19.10;99.90;;;;;;5013317;28;20417;-85
2022/08/17 00:13:39;;;;;;;6.43;5.77;;;19.10;99.90;;;;;;5013063;28;20929;-84
2022/08/17 00:16:22;;;;;;;6.63;5.57;;;19.10;99.90;;;;;;5025276;28;20421;-84
2022/08/17 00:18:48;;;;;;;7.57;6.03;;;19.10;99.90;;;;;;5032942;28;20734;-84
2022/08/17 00:21:14;;;;;;;7.70;7.00;;;19.10;99.90;;;;;;5032762;28;20518;-84
2022/08/17 00:23:41;;;;;;;5.83;5.23;;;19.10;99.90;;;;;;5032626;28;20428;-84
2022/08/17 00:26:08;;;;;;;6.67;5.87;;;19.10;99.90;;;;;;5032769;28;20803;-84
2022/08/17 00:28:33;;;;;;;6.80;6.20;;;19.00;99.90;;;;;;5032836;28;20421;-84
2022/08/17 00:30:59;;;;;;;7.77;6.97;;;19.00;99.90;;;;;;5032805;28;20904;-85
2022/08/17 00:33:27;;;;;;;6.43;5.73;;;19.00;99.90;;;;;;5015140;28;20181;-85
2022/08/17 00:35:54;;;;;;;6.40;5.73;;;19.00;99.90;;;;;;5032780;28;20177;-85
2022/08/17 00:38:19;;;;;;;7.57;6.77;;;18.90;99.90;;;;;;5032434;28;20895;-85
2022/08/17 00:40:49;;;;;;;7.80;6.40;;;18.90;99.90;;;;;;5032487;28;20546;-83
2022/08/17 00:43:21;;;;;;;9.23;7.20;;;18.80;99.90;;;;;;5032626;28;20420;-83
2022/08/17 00:45:47;;;;;;;10.00;7.03;;;18.80;99.90;;;;;;5032713;28;20400;-84
2022/08/17 00:48:14;;;;;;;7.27;5.67;;;18.80;99.90;;;;;;5032672;28;20520;-83
2022/08/17 00:50:55;;;;;;;8.00;6.67;;;18.70;99.90;;;;;;5032506;28;20494;-83
2022/08/17 00:53:21;;;;;;;9.07;6.40;;;18.70;99.90;;;;;;5032250;28;20407;-83
2022/08/17 00:55:47;;;;;;;6.43;5.47;;;18.70;99.90;;;;;;5032464;28;20421;-83
2022/08/17 00:58:13;;;;;;;5.90;5.27;;;18.60;99.90;;;;;;5032479;28;20716;-83
2022/08/17 01:00:42;;;;;;;6.80;6.10;;;18.60;99.90;;;;;;5032412;28;20472;-83
2022/08/17 01:03:13;;;;;;;6.37;5.77;;;18.60;99.90;;;;;;5032441;28;20506;-83
2022/08/17 01:05:40;;;;;;;6.00;5.40;;;18.60;99.90;;;;;;5032558;28;20417;-83
2022/08/17 01:08:11;;;;;;;9.10;6.93;;;18.60;99.90;;;;;;5032154;28;20463;-83
2022/08/17 01:10:46;;;;;;;6.63;6.03;;;18.50;99.90;;;;;;5032300;28;20412;-83
2022/08/17 01:13:12;;;;;;;7.23;5.97;;;18.50;99.90;;;;;;5032437;28;20414;-83
2022/08/17 01:15:46;;;;;;;6.77;6.07;;;18.50;99.90;;;;;;5032376;28;20499;-84
2022/08/17 01:18:12;;;;;;;6.67;6.07;;;18.50;99.90;;;;;;5033336;28;20418;-83
2022/08/17 01:20:43;;;;;;;7.67;6.90;;;18.40;99.90;;;;;;5036130;28;20453;-82
2022/08/17 01:23:08;;;;;;;6.80;5.87;;;18.40;99.90;;;;;;5035896;28;20769;-82
2022/08/17 01:25:34;;;;;;;7.87;5.40;;;18.40;99.90;;;;;;5036056;28;20411;-82
2022/08/17 01:28:00;;;;;;;7.60;6.10;;;18.40;99.90;;;;;;5035947;28;20208;-82
2022/08/17 01:30:26;;;;;;;7.30;6.60;;;18.30;99.90;;;;;;5035911;28;20912;-82
2022/08/17 01:32:51;;;;;;;9.33;6.97;;;18.30;99.90;;;;;;5035798;28;20435;-81
2022/08/17 01:35:17;;;;;;;8.30;7.10;;;18.20;99.90;;;;;;5035831;28;20257;-81
2022/08/17 01:37:43;;;;;;;7.50;6.60;;;18.30;99.90;;;;;;5035816;28;20181;-81
2022/08/17 01:40:22;;;;;;;10.00;7.30;;;18.20;99.90;;;;;;5035223;28;20586;-82
2022/08/17 01:42:52;;;;;;;7.97;7.20;;;18.30;99.90;;;;;;5035591;28;20417;-82
2022/08/17 01:45:22;;;;;;;7.10;6.43;;;18.30;99.90;;;;;;5035800;28;20404;-82
2022/08/17 01:47:48;;;;;;;8.20;6.50;;;18.20;99.90;;;;;;5035691;28;20416;-81
2022/08/17 01:50:18;;;;;;;8.50;7.23;;;18.20;99.90;;;;;;5035540;28;20453;-82
2022/08/17 01:52:46;;;;;;;7.67;6.20;;;18.20;99.90;;;;;;5035458;28;20850;-82
2022/08/17 01:55:15;;;;;;;6.83;6.07;;;18.10;99.90;;;;;;5035251;28;20460;-82
2022/08/17 01:57:44;;;;;;;8.63;7.50;;;18.10;99.90;;;;;;5035449;28;20430;-82
2022/08/17 02:00:10;;;;;;;7.93;7.23;;;18.10;99.90;;;;;;5035351;28;20420;-83
2022/08/17 02:02:35;;;;;;;9.80;8.43;;;18.20;99.90;;;;;;5035309;28;20416;-82
2022/08/17 02:05:01;;;;;;;8.87;7.33;;;18.10;99.90;;;;;;5035295;28;20443;-82
2022/08/17 02:07:27;;;;;;;8.13;7.33;;;18.10;99.90;;;;;;5035099;28;20705;-82
2022/08/17 02:09:52;;;;;;;8.57;6.90;;;18.10;99.90;;;;;;5034738;28;20188;-83
2022/08/17 02:12:18;;;;;;;8.23;7.53;;;18.00;99.90;;;;;;5035241;28;20181;-83
2022/08/17 02:14:44;;;;;;;8.63;7.27;;;18.00;99.90;;;;;;5035195;28;20273;-82
2022/08/17 02:17:09;;;;;;;9.40;7.93;;;18.00;99.90;;;;;;5035099;28;20176;-83
2022/08/17 02:19:35;;;;;;;7.93;7.23;;;18.00;99.90;;;;;;5035162;28;20422;-84
2022/08/17 02:22:00;;;;;;;8.50;7.70;;;18.00;99.90;;;;;;5035065;28;20632;-84
2022/08/17 02:24:30;;;;;;;6.77;6.10;;;18.00;99.90;;;;;;5034768;28;20525;-83
2022/08/17 02:26:56;;;;;;;7.00;6.27;;;18.00;99.90;;;;;;5034990;28;20174;-82
2022/08/17 02:29:21;;;;;;;7.23;6.50;;;18.00;99.90;;;;;;5034592;28;20474;-84
2022/08/17 02:31:47;;;;;;;8.40;7.00;;;17.90;99.90;;;;;;5034877;28;20184;-83
2022/08/17 02:34:14;;;;;;;7.70;6.90;;;17.90;99.90;;;;;;5034814;28;20170;-83
2022/08/17 02:36:39;;;;;;;8.73;7.90;;;17.90;99.90;;;;;;5034815;28;20263;-83
2022/08/17 02:39:08;;;;;;;7.63;6.90;;;17.90;99.90;;;;;;5034422;28;20499;-83
2022/08/17 02:41:35;;;;;;;8.70;6.57;;;17.80;99.90;;;;;;5034413;28;20723;-85
2022/08/17 02:44:01;;;;;;;8.63;7.20;;;17.80;99.90;;;;;;5034437;28;20413;-82
2022/08/17 02:46:27;;;;;;;8.07;7.27;;;17.80;99.90;;;;;;5034521;28;20432;-82
2022/08/17 02:48:52;;;;;;;8.90;7.17;;;17.80;99.90;;;;;;5034687;28;20187;-83
2022/08/17 02:51:18;;;;;;;6.90;6.20;;;17.80;99.90;;;;;;5034509;28;20430;-84
2022/08/17 02:53:45;;;;;;;8.60;7.13;;;17.80;99.90;;;;;;5034081;28;20183;-83
2022/08/17 02:56:11;;;;;;;7.17;6.47;;;17.80;99.90;;;;;;5034562;28;20432;-83
2022/08/17 02:58:36;;;;;;;8.30;7.50;;;17.80;99.90;;;;;;5034221;28;20425;-83
2022/08/17 03:01:04;;;;;;;7.83;6.53;;;17.70;99.90;;;;;;5034125;28;20701;-83
2022/08/17 03:03:29;;;;;;;7.20;6.47;;;17.70;99.90;;;;;;5034243;28;20177;-83
2022/08/17 03:05:55;;;;;;;7.43;6.73;;;17.70;99.90;;;;;;5015461;28;20945;-85
2022/08/17 03:08:22;;;;;;;8.40;7.27;;;17.70;99.90;;;;;;5020250;28;20279;-83
2022/08/17 03:10:49;;;;;;;5.83;5.23;;;17.70;99.90;;;;;;5013783;28;20167;-84
2022/08/17 03:13:14;;;;;;;6.67;5.73;;;17.70;99.90;;;;;;5022003;28;20435;-83
2022/08/17 03:15:43;;;;;;;7.20;6.00;;;17.60;99.90;;;;;;5024579;28;20480;-84
2022/08/17 03:18:11;;;;;;;8.20;7.07;;;17.60;99.90;;;;;;5007173;28;20257;-82
2022/08/17 03:20:36;;;;;;;8.23;7.10;;;17.60;99.90;;;;;;5019840;28;20965;-83
2022/08/17 03:23:03;;;;;;;8.10;5.93;;;17.50;99.90;;;;;;5023409;28;20476;-83
2022/08/17 03:25:34;;;;;;;8.00;6.90;;;17.60;99.90;;;;;;5024058;28;20202;-83
2022/08/17 03:27:59;;;;;;;7.33;6.50;;;17.60;99.90;;;;;;5020646;28;20433;-83
2022/08/17 03:30:26;;;;;;;7.97;7.17;;;17.60;99.90;;;;;;5023151;28;20418;-83
2022/08/17 03:32:55;;;;;;;9.13;7.17;;;17.60;99.90;;;;;;5024369;28;20208;-84
2022/08/17 03:35:24;;;;;;;8.00;7.20;;;17.60;99.90;;;;;;5022863;28;20743;-83
2022/08/17 03:37:50;;;;;;;9.27;7.33;;;17.60;99.90;;;;;;5021864;28;20776;-83
2022/08/17 03:40:16;;;;;;;8.00;7.20;;;17.50;99.90;;;;;;5023641;28;20406;-83
2022/08/17 03:42:42;;;;;;;7.63;6.17;;;17.50;99.90;;;;;;5022517;28;20192;-85
2022/08/17 03:45:12;;;;;;;7.17;5.97;;;17.40;99.90;;;;;;5019814;28;20761;-84
2022/08/17 03:58:46;;;;;;;8.30;7.50;;;17.40;99.90;;;;;;5019723;28;20419;-87
2022/08/17 04:01:12;;;;;;;9.20;8.17;;;17.40;99.90;;;;;;5023644;28;20461;-86
2022/08/17 04:03:38;;;;;;;9.40;7.10;;;17.40;99.90;;;;;;5021852;28;20435;-84
2022/08/17 04:06:06;;;;;;;7.67;6.97;;;17.40;99.90;;;;;;5021861;28;20503;-85
2022/08/17 04:08:32;;;;;;;7.90;7.10;;;17.40;99.90;;;;;;5020163;28;20193;-85
2022/08/17 04:11:01;;;;;;;8.33;7.53;;;17.40;99.90;;;;;;5022758;28;20415;-86
2022/08/17 04:13:26;;;;;;;7.60;6.77;;;17.40;99.90;;;;;;5023547;28;20635;-86
2022/08/17 04:15:52;;;;;;;6.80;6.20;;;17.40;99.90;;;;;;5021815;28;20505;-86
2022/08/17 04:18:18;;;;;;;6.90;5.93;;;17.30;99.90;;;;;;5004898;28;20428;-84
2022/08/17 04:20:44;;;;;;;8.93;6.80;;;17.30;99.90;;;;;;5020847;28;20207;-84
2022/08/17 04:23:14;;;;;;;8.33;7.53;;;17.30;99.90;;;;;;5023282;28;20177;-88
2022/08/17 04:25:48;;;;;;;9.40;7.67;;;17.30;99.90;;;;;;5021018;28;20415;-84
2022/08/17 04:28:15;;;;;;;7.97;6.23;;;17.40;99.90;;;;;;5013127;28;20509;-82
2022/08/17 04:30:43;;;;;;;7.77;6.97;;;17.30;99.90;;;;;;5013076;28;20419;-83
2022/08/17 04:33:23;;;;;;;6.60;6.00;;;17.30;99.90;;;;;;5013006;28;20425;-83
2022/08/17 04:35:57;;;;;;;5.83;5.20;;;17.40;99.90;;;;;;5011924;28;20441;-83
2022/08/17 04:38:30;;;;;;;8.50;7.27;;;17.40;99.90;;;;;;5012574;28;20420;-81
2022/08/17 04:43:43;;;;;;;6.23;5.53;;;17.40;99.90;;;;;;5012858;28;20467;-83
2022/08/17 04:46:13;;;;;;;7.47;6.57;;;17.40;99.90;;;;;;5013001;28;20416;-84
2022/08/17 04:48:46;;;;;;;6.00;5.40;;;17.40;99.90;;;;;;5017700;28;20460;-84
2022/08/17 04:51:22;;;;;;;7.27;6.57;;;17.50;99.90;;;;;;5019646;28;20409;-83
2022/08/17 04:53:51;;;;;;;5.37;4.87;;;17.50;99.90;;;;;;5016430;28;20441;-81
2022/08/17 04:56:17;;;;;;;8.97;7.17;;;17.60;99.90;;;;;;5016775;28;20515;-81
2022/08/17 04:58:45;;;;;;;7.80;7.00;;;17.60;99.90;;;;;;5016806;28;20499;-84
2022/08/17 05:01:11;;;;;;;8.53;6.03;;;17.70;99.90;;;;;;5016641;28;20475;-84
2022/08/17 05:03:36;;;;;;;8.37;6.13;;;17.70;99.90;;;;;;5016571;28;20438;-84
2022/08/17 05:06:02;;;;;;;6.87;6.20;;;17.70;99.90;;;;;;5016690;28;20189;-83
2022/08/17 05:08:27;;;;;;;9.23;8.30;;;17.80;99.90;;;;;;5016242;28;20282;-82
2022/08/17 05:10:54;;;;;;;10.33;7.73;;;17.90;99.90;;;;;;5016561;28;20208;-79
2022/08/17 05:13:25;;;;;;;9.23;6.50;;;18.00;99.90;;;;;;5016457;28;20421;-81
2022/08/17 05:15:54;;;;;;;7.93;7.13;;;18.10;99.90;;;;;;5016416;28;20227;-85
2022/08/17 05:18:21;;;;;;;9.03;7.10;;;18.20;99.90;;;;;;5016238;28;20814;-83
2022/08/17 05:20:46;;;;;;;8.57;7.20;;;18.20;99.90;;;;;;5016246;28;20599;-83
2022/08/17 05:23:14;;;;;;;8.13;6.97;;;18.30;99.90;;;;;;5016119;28;20459;-81
2022/08/17 05:25:46;;;;;;;7.67;6.60;;;18.50;99.90;;;;;;5016338;28;20263;-82
2022/08/17 05:28:12;;;;;;;9.10;7.57;;;18.60;99.90;;;;;;4998572;28;20467;-83
2022/08/17 05:30:39;;;;;;;9.00;6.90;;;18.70;99.90;;;;;;5016202;28;20425;-82
2022/08/17 05:33:10;;;;;;;11.03;8.03;;;18.80;99.90;;;;;;5016086;28;20428;-82
2022/08/17 05:35:38;;;;;;;9.67;8.50;;;19.00;99.90;;;;;;5016231;28;20428;-82
2022/08/17 05:38:04;;;;;;;9.00;7.67;;;19.20;99.90;;;;;;5014439;28;20423;-83
2022/08/17 05:40:30;;;;;;;11.60;9.90;;;19.40;99.90;;;;;;5015401;28;20536;-80
2022/08/17 05:43:09;;;;;;;13.13;10.47;;;19.80;99.90;;;;;;5015856;28;20894;-82
2022/08/17 05:45:59;;;;;;;11.90;10.47;;;20.00;99.90;;;;;;5016008;28;20410;-82
2022/08/17 05:48:26;;;;;;;9.73;8.73;;;20.30;99.90;;;;;;4978503;28;20938;-83
2022/08/17 05:51:42;;;;;;;8.73;7.93;;;20.40;99.90;;;;;;5016040;28;20422;-81
2022/08/17 05:54:43;;;;;;;10.80;9.60;;;20.50;99.90;;;;;;4990123;28;20467;-82
2022/08/17 05:57:36;;;;;;;8.90;8.10;;;20.70;99.90;;;;;;4991712;28;20500;-82
2022/08/17 06:00:22;;;;;;;11.27;9.47;;;21.20;99.90;;;;;;5015882;28;20467;-82
2022/08/17 06:03:03;;;;;;;10.03;9.13;;;21.60;99.90;;;;;;5015926;28;20433;-83
2022/08/17 06:06:10;;;;;;;8.40;7.70;;;21.90;99.90;;;;;;5015224;28;20507;-82
2022/08/17 06:08:56;;;;;;;11.00;8.93;;;22.10;99.90;;;;;;5001653;28;20529;-83
2022/08/17 06:11:46;;;;;;;10.37;9.37;;;22.40;99.90;;;;;;5035487;28;20422;-82
2022/08/17 06:14:49;;;;;;;10.13;9.10;;;22.60;99.90;;;;;;5035428;28;20405;-83
2022/08/17 06:17:20;;;;;;;9.03;8.13;;;23.20;99.90;;;;;;5035346;28;20416;-82
2022/08/17 06:19:54;;;;;;;10.80;9.70;;;24.00;99.90;;;;;;5035299;28;20413;-82
2022/08/17 06:22:24;;;;;;;10.40;9.40;;;24.60;3.80;;;;;;5035212;28;20460;-84
2022/08/17 06:24:55;;;;;;;10.57;9.57;;;25.70;1.00;;;;;;5035321;28;20432;-82
2022/08/17 06:27:39;;;;;;;10.70;9.33;;;25.80;1.00;;;;;;5035354;28;20413;-84
2022/08/17 06:30:24;;;;;;;8.83;8.03;;;25.80;1.00;;;;;;5035479;28;20440;-84
2022/08/17 06:32:51;;;;;;;8.93;8.17;;;25.80;99.90;;;;;;5035202;28;20488;-85
2022/08/17 06:35:27;;;;;;;10.40;9.43;;;25.80;1.00;;;;;;5034863;28;20467;-85
2022/08/17 06:38:01;;;;;;;9.20;8.27;;;26.00;1.00;;;;;;5034638;28;20467;-83
2022/08/17 06:40:49;;;;;;;8.73;7.83;;;26.30;99.90;;;;;;5035423;28;20819;-84
2022/08/17 06:43:40;;;;;;;9.90;8.90;;;27.00;99.90;;;;;;5034777;28;20750;-83
2022/08/17 06:46:34;;;;;;;9.93;8.87;;;27.10;99.90;;;;;;5034983;28;20406;-84
2022/08/17 06:49:29;;;;;;;10.07;9.17;;;27.10;70.70;;;;;;5034838;28;20972;-85
2022/08/17 06:52:01;;;;;;;8.90;8.00;;;27.20;1.00;;;;;;5034726;28;20417;-85
2022/08/17 06:54:58;;;;;;;9.17;8.33;;;27.20;99.90;;;;;;5034506;28;20409;-84
2022/08/17 06:57:27;;;;;;;10.10;8.47;;;27.00;99.90;;;;;;5034601;28;20412;-83
2022/08/17 07:00:01;;;;;;;8.83;8.03;;;26.90;99.90;;;;;;5034447;28;20417;-85
2022/08/17 07:02:50;;;;;;;8.73;7.80;;;26.70;99.90;;;;;;5034287;28;20488;-86
2022/08/17 07:05:19;;;;;;;8.93;8.20;;;26.90;1.00;;;;;;5034441;28;20408;-86
2022/08/17 07:08:01;;;;;;;9.23;8.40;;;26.80;1.00;;;;;;5020039;28;20477;-84
2022/08/17 07:10:49;;;;;;;8.07;7.30;;;26.60;1.00;;;;;;5014470;28;20494;-85
2022/08/17 07:13:36;;;;;;;8.43;7.73;;;26.70;1.00;;;;;;5014722;28;20414;-84
2022/08/17 07:16:13;;;;;;;8.57;7.77;;;27.00;1.00;;;;;;5014468;28;20993;-85
2022/08/17 07:18:39;;;;;;;9.23;8.43;;;26.80;1.00;;;;;;5014310;28;20952;-85
2022/08/17 07:21:15;;;;;;;9.10;8.20;;;27.30;1.00;;;;;;5014427;28;20465;-82
2022/08/17 07:24:11;;;;;;;9.27;8.40;;;28.00;99.90;;;;;;5013989;28;20903;-85
2022/08/17 07:26:37;;;;;;;9.70;8.70;;;27.80;99.90;;;;;;5014632;28;20437;-83
2022/08/17 07:29:04;;;;;;;7.30;6.70;;;28.20;99.90;;;;;;5014517;28;20437;-85
2022/08/17 07:31:32;;;;;;;9.20;8.40;;;28.70;1.00;;;;;;5014475;28;20865;-84
2022/08/17 07:34:15;;;;;;;6.67;6.07;;;28.60;1.00;;;;;;5014982;28;20501;-83
2022/08/17 07:36:41;;;;;;;7.23;6.57;;;27.80;1.00;;;;;;5014462;28;20977;-82
2022/08/17 07:39:24;;;;;;;6.97;5.83;;;26.90;1.00;;;;;;5014374;28;20465;-84
2022/08/17 07:41:49;;;;;;;6.30;5.70;;;26.40;1.00;;;;;;5015141;28;20222;-81
2022/08/17 07:44:15;;;;;;;6.17;5.63;;;26.70;99.90;;;;;;5014224;28;20886;-92
2022/08/17 07:49:39;;;;;;;6.60;6.10;;;27.60;1.00;;;;;;5013541;28;20178;-82
2022/08/17 07:52:09;;;;;;;7.67;6.93;;;28.00;1.00;;;;;;5013785;28;20417;-83
2022/08/17 07:54:41;;;;;;;6.53;5.93;;;28.20;1.00;;;;;;5014662;28;20824;-83
2022/08/17 07:57:09;;;;;;;6.70;6.10;;;28.80;1.00;;;;;;5014777;28;20418;-83
2022/08/17 08:00:02;;;;;;;6.70;6.10;;;28.50;99.90;;;;;;5014181;28;20425;-82
2022/08/17 08:02:37;;;;;;;6.20;5.70;;;28.60;99.90;;;;;;5013780;28;20927;-84
2022/08/17 08:05:26;;;;;;;5.73;5.20;;;29.10;1.00;;;;;;5013970;28;20412;-82
2022/08/17 08:08:01;;;;;;;5.33;4.93;;;29.50;1.00;;;;;;5042560;28;20479;-82
2022/08/17 08:10:31;;;;;;;6.20;5.70;;;29.20;1.00;;;;;;5053274;28;20416;-83
2022/08/17 08:13:06;;;;;;;7.67;5.90;;;29.00;99.90;;;;;;5053182;28;20408;-83
2022/08/17 08:15:39;;;;;;;6.13;5.63;;;29.00;99.90;;;;;;5053301;28;20470;-83
2022/08/17 08:18:23;;;;;;;5.37;4.97;;;28.80;99.90;;;;;;5053317;28;20916;-83
2022/08/17 08:21:02;;;;;;;5.87;5.27;;;28.40;1.00;;;;;;5053383;28;20455;-84
2022/08/17 08:23:59;;;;;;;5.23;4.73;;;28.50;99.90;;;;;;5053186;28;20820;-86
2022/08/17 08:26:54;;;;;;;4.80;4.40;;;28.70;99.90;;;;;;5054418;28;20470;-89
2022/08/17 08:29:54;;;;;;;4.60;4.20;;;29.50;1.00;;;;;;5053568;28;20466;-89
2022/08/17 08:32:36;;;;;;;5.20;4.80;;;29.70;1.00;;;;;;5031767;28;20499;-87
2022/08/17 08:35:11;;;;;;;5.10;4.70;;;30.50;1.00;;;;;;5053139;28;20813;-87
2022/08/17 08:37:52;;;;;;;5.27;4.87;;;31.10;99.90;;;;;;5053056;28;20457;-88
2022/08/17 08:40:29;;;;;;;4.27;3.93;;;31.70;1.00;;;;;;5054236;28;20408;-92
2022/08/17 08:43:07;;;;;;;5.13;4.73;;;32.30;99.90;;;;;;5054139;28;20412;-89
2022/08/17 08:45:56;;;;;;;4.57;4.27;;;32.80;99.90;;;;;;5053902;28;20459;-87
2022/08/17 08:48:51;;;;;;;3.93;3.60;;;32.80;99.90;;;;;;5046642;28;20433;-85
2022/08/17 08:51:16;;;;;;;4.23;3.83;;;33.00;99.90;;;;;;5039678;28;20420;-83
2022/08/17 08:54:00;;;;;;;4.67;4.33;;;32.50;99.90;;;;;;5051678;28;20815;-82
2022/08/17 08:56:51;;;;;;;4.87;3.47;;;32.60;99.90;;;;;;5052614;28;20192;-83
2022/08/17 08:59:42;;;;;;;3.73;3.43;;;32.80;99.90;;;;;;5052512;28;20444;-83
2022/08/17 09:02:22;;;;;;;4.07;3.77;;;33.00;99.90;;;;;;5052399;28;20479;-83
2022/08/17 09:05:12;;;;;;;4.47;4.07;;;33.80;73.80;;;;;;5052468;28;20416;-83
2022/08/17 09:08:03;;;;;;;2.80;2.60;;;33.90;99.10;;;;;;5051966;28;20456;-84
2022/08/17 09:10:33;;;;;;;3.10;2.67;;;33.80;54.80;;;;;;5052469;28;20412;-85
2022/08/17 09:13:12;;;;;;;3.30;3.10;;;33.90;78.20;;;;;;5052411;28;20424;-84
2022/08/17 09:15:44;;;;;;;3.47;3.17;;;34.20;50.20;;;;;;5052394;28;20781;-83
2022/08/17 09:18:18;;;;;;;3.50;3.20;;;33.20;28.40;;;;;;5052449;28;20470;-84
2022/08/17 09:20:52;;;;;;;3.80;3.50;;;33.00;9.20;;;;;;5052271;28;20447;-84
2022/08/17 09:23:31;;;;;;;3.90;3.53;;;33.60;15.50;;;;;;5052030;28;20416;-84
2022/08/17 09:26:19;;;;;;;4.40;3.30;;;33.50;6.80;;;;;;5052221;28;20965;-84
2022/08/17 09:28:50;;;;;;;3.83;3.53;;;33.30;17.60;;;;;;5052285;28;20416;-83
2022/08/17 09:31:21;;;;;;;3.90;3.47;;;33.50;1.00;;;;;;5052281;28;20437;-85
2022/08/17 09:33:47;;;;;;;3.40;3.20;;;34.20;20.20;;;;;;5052181;28;20408;-82
2022/08/17 09:36:26;;;;;;;3.43;3.23;;;34.80;10.60;;;;;;5052301;28;20430;-85
2022/08/17 09:39:13;;;;;;;2.70;2.50;;;34.70;11.30;;;;;;5052336;28;20396;-84
2022/08/17 09:41:50;;;;;;;3.73;3.00;;;34.40;16.00;;;;;;5055537;28;20495;-83
2022/08/17 09:44:22;;;;;;;3.20;2.90;;;35.00;1.00;;;;;;5055789;28;20447;-83
2022/08/17 09:47:02;;;;;;;2.83;2.63;;;35.10;1.00;;;;;;5055958;28;20412;-82
2022/08/17 09:49:36;;;;;;;2.90;2.63;;;33.50;1.00;;;;;;5055746;28;20423;-83
2022/08/17 09:52:10;;;;;;;2.93;2.73;;;32.80;1.00;;;;;;5055348;28;20842;-83
2022/08/17 09:54:39;;;;;;;2.70;2.50;;;33.20;1.00;;;;;;5055701;28;20419;-84
2022/08/17 09:57:30;;;;;;;3.13;2.47;;;34.40;1.00;;;;;;5055812;28;20420;-82
2022/08/17 10:00:17;;;;;;;3.47;3.17;;;35.00;1.00;;;;;;5055570;28;20404;-84
2022/08/17 10:02:43;;;;;;;3.43;3.13;;;34.60;1.00;;;;;;5055618;28;20423;-85
2022/08/17 10:05:27;;;;;;;2.77;2.57;;;34.30;1.00;;;;;;5055637;28;20457;-84
2022/08/17 10:08:21;;;;;;;4.13;3.73;;;34.20;1.00;;;;;;5054920;28;20740;-84
2022/08/17 10:11:21;;;;;;;2.90;2.60;;;34.00;1.00;;;;;;5055426;28;20513;-85
2022/08/17 10:14:05;;;;;;;2.90;2.70;;;33.90;1.00;;;;;;5055184;28;20428;-84
2022/08/17 10:16:42;;;;;;;3.43;2.50;;;33.80;1.00;;;;;;5055340;28;20416;-84
2022/08/17 10:19:25;;;;;;;3.27;3.07;;;33.40;1.00;;;;;;5055187;28;20558;-82
2022/08/17 10:27:47;;;;;;;3.00;2.80;;;32.20;1.00;;;;;;5065567;28;20403;-84
2022/08/17 10:30:16;;;;;;;3.17;2.97;;;32.80;1.00;;;;;;5055280;28;20435;-84
2022/08/17 10:32:56;;;;;;;3.33;3.10;;;32.60;1.00;;;;;;5054908;28;20497;-83
2022/08/17 10:35:39;;;;;;;2.90;2.70;;;32.90;1.00;;;;;;5055183;28;20764;-83
2022/08/17 10:38:24;;;;;;;3.80;2.90;;;33.60;1.00;;;;;;5054664;28;20418;-85
2022/08/17 10:41:26;;;;;;;3.77;3.40;;;34.10;1.00;;;;;;5054603;28;20474;-84
2022/08/17 10:44:22;;;;;;;3.20;3.00;;;33.90;1.00;;;;;;5041073;28;20432;-84
2022/08/17 10:47:01;;;;;;;3.30;3.00;;;34.20;1.00;;;;;;5053528;28;21007;-84
2022/08/17 10:49:43;;;;;;;3.90;3.60;;;33.70;1.00;;;;;;5054562;28;20404;-84
2022/08/17 10:52:25;;;;;;;3.30;3.10;;;33.90;1.00;;;;;;5054303;28;20513;-85
2022/08/17 10:54:50;;;;;;;2.47;2.27;;;34.20;1.00;;;;;;5054532;28;20491;-85
2022/08/17 10:57:36;;;;;;;2.83;2.50;;;34.70;1.00;;;;;;5054470;28;20495;-85
2022/08/17 11:00:08;;;;;;;3.30;3.10;;;34.20;1.00;;;;;;5054460;28;20181;-87
2022/08/17 11:02:50;;;;;;;2.93;2.73;;;33.40;1.00;;;;;;5054458;28;20464;-83
2022/08/17 11:05:28;;;;;;;3.00;2.80;;;32.60;1.00;;;;;;5054632;28;20419;-85
2022/08/17 11:08:11;;;;;;;3.80;3.50;;;32.20;1.00;;;;;;5054069;28;20849;-86
2022/08/17 11:10:45;;;;;;;4.03;3.70;;;31.70;1.00;;;;;;5054285;28;20438;-84
2022/08/17 11:13:36;;;;;;;3.87;3.57;;;31.20;1.00;;;;;;5054160;28;20468;-85
2022/08/17 11:16:24;;;;;;;3.60;3.40;;;31.10;1.00;;;;;;5054115;28;20489;-85
2022/08/17 11:19:20;;;;;;;3.77;3.47;;;30.60;1.00;;;;;;5054110;28;20408;-82
2022/08/17 11:22:09;;;;;;;3.57;3.27;;;30.40;1.00;;;;;;5053531;28;20471;-85
2022/08/17 11:24:46;;;;;;;3.30;3.00;;;30.70;1.00;;;;;;5053880;28;20403;-83
2022/08/17 11:27:23;;;;;;;3.33;3.03;;;30.40;1.00;;;;;;5053818;28;20470;-84
2022/08/17 11:29:54;;;;;;;3.60;3.30;;;30.60;1.00;;;;;;5035977;28;20434;-85
2022/08/17 11:32:39;;;;;;;3.50;3.20;;;30.80;1.00;;;;;;5053876;28;20444;-84
2022/08/17 11:35:20;;;;;;;3.60;3.30;;;32.00;1.00;;;;;;5053727;28;20405;-83
2022/08/17 11:38:10;;;;;;;3.17;2.87;;;33.10;1.00;;;;;;5053531;28;20411;-83
2022/08/17 11:40:53;;;;;;;2.87;2.57;;;33.40;1.00;;;;;;5053693;28;20933;-84
2022/08/17 11:43:57;;;;;;;2.37;2.20;;;34.30;1.00;;;;;;5053636;28;20503;-86
2022/08/17 11:52:41;;;;;;;3.03;2.80;;;32.80;1.00;;;;;;5053270;28;20506;-88
2022/08/17 11:55:34;;;;;;;3.23;2.93;;;32.40;1.00;;;;;;5053523;28;20428;-84
2022/08/17 11:58:24;;;;;;;3.53;3.23;;;32.10;1.00;;;;;;5053034;28;20404;-85
2022/08/17 12:01:01;;;;;;;2.70;2.50;;;31.70;1.00;;;;;;5052761;28;20952;-85
2022/08/17 12:03:32;;;;;;;2.60;2.40;;;31.70;1.00;;;;;;5052744;28;20426;-91
2022/08/17 12:06:19;;;;;;;3.00;2.80;;;31.60;1.00;;;;;;5053145;28;20432;-85
2022/08/17 12:08:57;;;;;;;2.50;2.30;;;31.00;1.00;;;;;;5052074;28;20928;-84
2022/08/17 12:11:47;;;;;;;3.30;3.00;;;30.60;1.00;;;;;;5053147;28;20535;-84
2022/08/17 12:14:19;;;;;;;3.50;3.00;;;30.60;1.00;;;;;;5052992;28;20416;-84
2022/08/17 12:16:57;;;;;;;3.80;2.83;;;30.40;1.00;;;;;;5053198;28;21060;-84
2022/08/17 12:19:26;;;;;;;3.00;2.70;;;30.20;1.00;;;;;;5052959;28;20415;-84
2022/08/17 12:22:14;;;;;;;3.07;2.37;;;30.20;1.00;;;;;;5052566;28;20617;-85
2022/08/17 12:25:00;;;;;;;3.67;3.37;;;30.30;1.00;;;;;;5053059;28;20400;-84
2022/08/17 12:27:32;;;;;;;3.40;2.97;;;30.00;2.10;;;;;;5053197;28;20400;-84
2022/08/17 12:30:02;;;;;;;2.97;2.70;;;30.00;1.00;;;;;;5053328;28;20412;-89
2022/08/17 12:32:32;;;;;;;5.40;3.33;;;29.90;8.70;;;;;;5053123;28;20428;-85
2022/08/17 12:34:58;;;;;;;3.37;3.07;;;29.90;65.90;;;;;;5053447;28;20412;-84
2022/08/17 12:37:32;;;;;;;3.37;3.10;;;30.10;1.00;;;;;;5052741;28;20423;-84
2022/08/17 12:40:15;;;;;;;2.97;2.77;;;30.50;1.00;;;;;;5052694;28;20404;-84
2022/08/17 12:42:57;;;;;;;3.13;2.70;;;30.60;1.00;;;;;;5052632;28;20499;-84
2022/08/17 12:45:29;;;;;;;3.03;2.83;;;30.40;1.00;;;;;;5052730;28;20828;-84
2022/08/17 12:48:06;;;;;;;3.00;2.77;;;30.60;1.00;;;;;;5052980;28;20415;-84
2022/08/17 12:50:39;;;;;;;2.67;2.47;;;30.80;1.00;;;;;;5052743;28;20473;-85
2022/08/17 12:53:26;;;;;;;3.27;3.00;;;31.00;1.00;;;;;;5052366;28;20424;-85
2022/08/17 12:55:53;;;;;;;3.50;3.20;;;31.30;1.00;;;;;;5052655;28;20419;-86
2022/08/17 12:58:23;;;;;;;2.80;2.60;;;31.30;1.00;;;;;;5052547;28;20454;-86
2022/08/17 13:00:58;;;;;;;2.80;2.50;;;31.60;1.00;;;;;;5052485;28;20483;-85
2022/08/17 13:03:30;;;;;;;3.00;2.80;;;31.80;1.00;;;;;;5052621;28;20447;-84
2022/08/17 13:06:08;;;;;;;2.90;2.70;;;32.10;1.00;;;;;;5052580;28;20416;-84
2022/08/17 13:08:35;;;;;;;3.40;3.10;;;32.10;1.00;;;;;;5052917;28;20442;-85
2022/08/17 13:11:07;;;;;;;2.87;2.50;;;31.70;1.00;;;;;;5052470;28;20983;-84
2022/08/17 13:13:37;;;;;;;2.47;2.27;;;31.50;1.00;;;;;;5054310;28;20794;-85
2022/08/17 13:16:11;;;;;;;3.10;2.80;;;31.60;1.00;;;;;;5056370;28;20427;-88
2022/08/17 13:18:51;;;;;;;4.13;2.60;;;31.20;1.00;;;;;;5057161;28;20426;-92
2022/08/17 13:21:22;;;;;;;2.30;2.13;;;30.90;1.00;;;;;;5057636;28;20997;-85
2022/08/17 13:24:00;;;;;;;2.60;2.40;;;30.40;20.40;;;;;;5057727;28;20415;-96
2022/08/17 13:26:36;;;;;;;2.67;2.47;;;30.40;1.00;;;;;;5057091;28;20412;-94
2022/08/17 13:29:23;;;;;;;3.47;2.97;;;30.40;1.00;;;;;;5057636;28;20419;-91
2022/08/17 13:31:54;;;;;;;4.33;2.63;;;30.00;11.40;;;;;;5057084;28;20437;-84
2022/08/17 13:34:23;;;;;;;2.73;2.00;;;29.70;40.00;;;;;;5056459;28;20494;-84
2022/08/17 13:36:50;;;;;;;4.03;2.73;;;29.50;38.60;;;;;;5056121;28;20466;-85
2022/08/17 13:39:19;;;;;;;3.30;2.47;;;29.30;99.90;;;;;;5057324;28;20781;-87
2022/08/17 13:41:47;;;;;;;7.43;4.13;;;29.20;99.90;;;;;;5056627;28;20555;-96
2022/08/17 13:44:39;;;;;;;4.20;3.13;;;29.30;99.90;;;;;;5056716;28;20408;-85
2022/08/17 13:47:16;;;;;;;3.00;2.80;;;29.40;98.70;;;;;;5055933;28;20419;-84
2022/08/17 13:49:42;;;;;;;3.97;3.57;;;29.30;99.90;;;;;;5056183;28;20403;-91
2022/08/17 13:52:30;;;;;;;3.70;2.87;;;29.40;94.50;;;;;;5055725;28;20416;-84
2022/08/17 13:54:59;;;;;;;3.30;2.63;;;29.30;1.00;;;;;;5047379;28;20406;-84
2022/08/17 13:57:25;;;;;;;3.40;2.50;;;29.40;99.90;;;;;;5034476;28;20512;-85